Time;durP1;ratioP1;P1;durP2;ratioP2;P2;SDS_P1;SDS_P2;PMS_P1;PMS_P2;Temp;Humidity;BMP_temperature;BMP_pressure;BME280_temperature;BME280_humidity;BME280_pressure;Samples;Min_cycle;Max_cycle;Signal;HPM_P1;HPM_P2
2021/09/30 00:01:10;;;;;;;0.00;0.00;;;9.50;99.90;;;;;;5090594;28;20200;-80
2021/09/30 00:03:36;;;;;;;0.10;0.10;;;9.40;99.90;;;;;;5093128;28;20205;-80
2021/09/30 00:06:02;;;;;;;0.10;0.10;;;9.50;99.90;;;;;;5092703;28;20213;-79
2021/09/30 00:08:27;;;;;;;0.10;0.10;;;9.40;99.90;;;;;;5089520;28;20192;-80
2021/09/30 00:11:09;;;;;;;0.30;0.30;;;9.40;99.90;;;;;;5089374;28;20193;-80
2021/09/30 00:40:53;;;;;;;0.37;0.37;;;9.10;99.90;;;;;;5090750;28;20187;-79
2021/09/30 00:46:08;;;;;;;0.00;0.00;;;9.10;99.90;;;;;;5088436;28;20216;-80
2021/09/30 00:48:55;;;;;;;6.70;0.20;;;9.00;99.90;;;;;;5090338;28;20175;-80
2021/09/30 00:51:27;;;;;;;0.00;0.00;;;9.00;99.90;;;;;;5083075;28;20276;-80
2021/09/30 02:20:30;;;;;;;0.07;0.07;;;8.60;99.90;;;;;;5084395;28;20189;-80
2021/09/30 02:23:54;;;;;;;0.00;0.00;;;8.60;99.90;;;;;;5090002;28;20634;-80
2021/09/30 02:31:17;;;;;;;0.03;0.03;;;8.60;99.90;;;;;;5097821;28;20770;-79
2021/09/30 02:58:50;;;;;;;0.10;0.10;;;8.60;99.90;;;;;;5098888;28;20215;-80
2021/09/30 03:01:19;;;;;;;0.00;0.00;;;8.60;99.90;;;;;;5085786;28;20181;-80
2021/09/30 03:03:47;;;;;;;0.13;0.13;;;8.60;99.90;;;;;;5096625;28;20200;-80
2021/09/30 03:06:14;;;;;;;0.10;0.10;;;8.60;99.90;;;;;;5096706;28;20260;-80
2021/09/30 03:08:46;;;;;;;0.67;0.30;;;8.60;99.90;;;;;;5094050;28;20182;-80
2021/09/30 03:11:13;;;;;;;0.10;0.10;;;8.60;99.90;;;;;;5094931;28;20272;-80
2021/09/30 03:13:41;;;;;;;0.00;0.00;;;8.50;99.90;;;;;;5091439;28;20200;-80
2021/09/30 03:16:17;;;;;;;0.23;0.13;;;8.50;99.90;;;;;;5076347;28;20181;-80
2021/09/30 03:23:58;;;;;;;0.20;0.20;;;8.40;99.90;;;;;;5084658;28;20250;-80
2021/09/30 03:26:25;;;;;;;0.00;0.00;;;8.40;99.90;;;;;;5086622;28;20192;-80
2021/09/30 03:28:52;;;;;;;0.00;0.00;;;8.40;99.90;;;;;;5087896;28;20177;-79
2021/09/30 03:31:18;;;;;;;0.00;0.00;;;8.40;99.90;;;;;;5081132;28;20210;-79
2021/09/30 03:33:46;;;;;;;0.00;0.00;;;8.40;99.90;;;;;;5087536;28;20209;-80
2021/09/30 03:36:12;;;;;;;0.00;0.00;;;8.40;99.90;;;;;;5092163;28;20181;-80
2021/09/30 03:38:38;;;;;;;0.10;0.10;;;8.40;99.90;;;;;;5085396;28;20257;-80
2021/09/30 03:41:04;;;;;;;0.10;0.10;;;8.40;99.90;;;;;;5090578;28;20642;-80
2021/09/30 03:43:30;;;;;;;0.00;0.00;;;8.30;99.90;;;;;;5092286;28;20203;-80
2021/09/30 03:45:56;;;;;;;0.10;0.10;;;8.30;99.90;;;;;;5092784;28;20202;-82
2021/09/30 03:48:22;;;;;;;0.03;0.03;;;8.00;99.90;;;;;;5090333;28;20173;-79
2021/09/30 04:01:17;;;;;;;0.57;0.20;;;8.00;99.90;;;;;;5085709;28;20191;-79
2021/09/30 04:03:43;;;;;;;0.10;0.10;;;8.00;99.90;;;;;;5088106;28;20287;-80
2021/09/30 04:06:09;;;;;;;0.10;0.10;;;8.00;99.90;;;;;;5089259;28;20212;-79
2021/09/30 04:08:35;;;;;;;0.00;0.00;;;7.90;99.90;;;;;;5089255;28;20762;-80
2021/09/30 04:11:01;;;;;;;0.07;0.07;;;7.90;99.90;;;;;;5087745;28;20179;-80
2021/09/30 04:13:27;;;;;;;0.10;0.10;;;7.90;99.90;;;;;;5087375;28;20204;-81
2021/09/30 04:15:52;;;;;;;0.10;0.10;;;7.90;99.90;;;;;;5092317;28;20187;-80
2021/09/30 04:18:19;;;;;;;1.00;0.20;;;7.90;99.90;;;;;;5089905;28;20649;-80
2021/09/30 04:20:45;;;;;;;0.00;0.00;;;8.00;99.90;;;;;;5086866;28;20656;-80
2021/09/30 04:23:10;;;;;;;0.07;0.07;;;7.90;99.90;;;;;;5083251;28;20251;-81
2021/09/30 04:25:36;;;;;;;0.10;0.10;;;7.90;99.90;;;;;;5085780;28;20174;-80
2021/09/30 04:28:02;;;;;;;0.03;0.03;;;7.80;99.90;;;;;;5091633;28;20654;-80
2021/09/30 04:30:28;;;;;;;0.00;0.00;;;7.80;99.90;;;;;;5091587;28;20176;-80
2021/09/30 04:32:54;;;;;;;0.10;0.10;;;7.50;99.90;;;;;;5084214;28;20224;-81
2021/09/30 04:35:19;;;;;;;2.23;0.20;;;7.30;99.90;;;;;;5081768;28;20521;-81
2021/09/30 04:37:45;;;;;;;0.03;0.03;;;7.10;99.90;;;;;;5093422;28;20199;-80
2021/09/30 04:40:12;;;;;;;0.07;0.07;;;7.10;99.90;;;;;;5084523;28;20251;-80
2021/09/30 04:42:37;;;;;;;0.10;0.10;;;7.00;99.90;;;;;;5086963;28;20212;-81
2021/09/30 04:45:04;;;;;;;0.10;0.10;;;7.00;99.90;;;;;;5082500;28;20181;-80
2021/09/30 04:47:30;;;;;;;0.00;0.00;;;7.00;99.90;;;;;;5092029;28;20180;-80
2021/09/30 04:49:55;;;;;;;0.00;0.00;;;7.10;99.90;;;;;;5089477;28;20266;-80
2021/09/30 04:52:21;;;;;;;0.10;0.10;;;7.30;99.90;;;;;;5087548;28;20187;-80
2021/09/30 04:54:48;;;;;;;0.10;0.10;;;7.40;99.90;;;;;;5097011;28;20177;-80
2021/09/30 04:57:14;;;;;;;0.10;0.10;;;7.50;99.90;;;;;;5089678;28;20576;-80
2021/09/30 04:59:39;;;;;;;0.77;0.40;;;7.60;99.90;;;;;;5084026;28;20200;-80
2021/09/30 05:02:05;;;;;;;0.67;0.67;;;7.60;99.90;;;;;;5090718;28;20222;-80
2021/09/30 05:04:31;;;;;;;0.10;0.10;;;7.50;99.90;;;;;;5090664;28;20194;-80
2021/09/30 05:06:56;;;;;;;0.13;0.13;;;7.50;99.90;;;;;;5083423;28;20175;-80
2021/09/30 05:09:24;;;;;;;0.30;0.30;;;7.40;99.90;;;;;;5088966;28;20275;-81
2021/09/30 05:11:54;;;;;;;0.10;0.10;;;7.30;99.90;;;;;;5092440;28;20185;-80
2021/09/30 05:14:20;;;;;;;0.20;0.10;;;7.10;99.90;;;;;;5082255;28;20200;-80
2021/09/30 05:16:47;;;;;;;0.00;0.00;;;7.00;99.90;;;;;;5096249;28;20657;-80
2021/09/30 05:19:13;;;;;;;0.00;0.00;;;7.00;99.90;;;;;;5085769;28;20665;-80
2021/09/30 05:21:39;;;;;;;0.30;0.30;;;6.90;99.90;;;;;;5093468;28;20202;-80
2021/09/30 05:24:05;;;;;;;0.53;0.47;;;6.90;99.90;;;;;;5090299;28;20200;-80
2021/09/30 05:26:31;;;;;;;0.10;0.10;;;7.00;99.90;;;;;;5086385;28;20191;-80
2021/09/30 05:28:57;;;;;;;0.10;0.10;;;7.10;99.90;;;;;;5082132;28;20176;-80
2021/09/30 05:31:23;;;;;;;0.10;0.10;;;7.30;99.90;;;;;;5077319;28;20662;-80
2021/09/30 05:33:49;;;;;;;0.30;0.30;;;7.40;99.90;;;;;;5094192;28;20673;-80
2021/09/30 05:36:15;;;;;;;0.23;0.23;;;7.40;99.90;;;;;;5089114;28;20181;-80
2021/09/30 05:38:40;;;;;;;0.10;0.10;;;7.40;99.90;;;;;;5086563;28;20684;-79
2021/09/30 05:41:06;;;;;;;0.10;0.10;;;7.40;99.90;;;;;;5089234;28;20302;-80
2021/09/30 05:43:35;;;;;;;0.20;0.20;;;7.40;99.90;;;;;;5083029;28;20224;-80
2021/09/30 05:46:02;;;;;;;0.10;0.10;;;7.50;99.90;;;;;;5077674;28;20261;-80
2021/09/30 05:48:28;;;;;;;0.20;0.20;;;7.60;99.90;;;;;;5097503;28;20181;-80
2021/09/30 05:50:54;;;;;;;0.10;0.10;;;7.70;99.90;;;;;;5084742;28;20179;-80
2021/09/30 05:53:21;;;;;;;0.13;0.13;;;7.70;99.90;;;;;;5086992;28;20195;-80
2021/09/30 05:55:47;;;;;;;0.10;0.10;;;7.80;99.90;;;;;;5096024;28;20603;-81
2021/09/30 05:58:14;;;;;;;0.00;0.00;;;7.90;99.90;;;;;;5088922;28;20218;-80
2021/09/30 06:16:09;;;;;;;0.20;0.20;;;8.80;99.90;;;;;;5095149;28;20646;-81
2021/09/30 06:18:35;;;;;;;0.20;0.20;;;8.90;99.90;;;;;;5092777;28;20205;-81
2021/09/30 06:21:00;;;;;;;0.30;0.30;;;9.00;99.90;;;;;;5092446;28;20271;-80
2021/09/30 06:23:26;;;;;;;0.93;0.43;;;9.20;99.90;;;;;;5092306;28;20201;-80
2021/09/30 06:25:52;;;;;;;0.10;0.10;;;9.20;99.90;;;;;;5092476;28;20184;-80
2021/09/30 06:28:17;;;;;;;0.10;0.10;;;9.30;99.90;;;;;;5091891;28;20198;-80
2021/09/30 06:30:43;;;;;;;0.10;0.10;;;9.40;99.90;;;;;;5092146;28;20189;-80
2021/09/30 06:33:08;;;;;;;0.10;0.10;;;9.40;99.90;;;;;;5092342;28;20200;-81
2021/09/30 06:35:34;;;;;;;0.10;0.10;;;9.50;99.90;;;;;;5074182;28;20239;-81
2021/09/30 06:37:59;;;;;;;0.00;0.00;;;9.60;99.90;;;;;;5101888;28;20177;-80
2021/09/30 06:40:25;;;;;;;0.27;0.27;;;9.70;99.90;;;;;;5089526;28;20189;-80
2021/09/30 06:42:51;;;;;;;0.10;0.10;;;9.80;99.90;;;;;;5097216;28;20669;-81
2021/09/30 06:45:17;;;;;;;0.13;0.13;;;9.90;99.90;;;;;;5098027;28;20202;-80
2021/09/30 06:47:42;;;;;;;0.27;0.27;;;10.00;99.90;;;;;;5089393;28;20597;-80
2021/09/30 06:50:11;;;;;;;0.10;0.10;;;10.10;99.90;;;;;;5091754;28;20180;-80
2021/09/30 06:52:36;;;;;;;0.10;0.10;;;10.30;99.90;;;;;;5090266;28;20223;-80
2021/09/30 06:55:03;;;;;;;0.10;0.10;;;10.40;99.90;;;;;;5091056;28;20209;-81
2021/09/30 06:57:29;;;;;;;0.10;0.10;;;10.60;99.90;;;;;;5092882;28;20181;-80
2021/09/30 06:59:59;;;;;;;0.00;0.00;;;10.80;99.90;;;;;;5090258;28;20197;-80
2021/09/30 07:02:24;;;;;;;0.10;0.10;;;11.00;99.90;;;;;;5092828;28;20273;-80
2021/09/30 07:04:50;;;;;;;0.20;0.20;;;11.10;99.90;;;;;;5096527;28;20398;-80
2021/09/30 07:07:16;;;;;;;0.20;0.20;;;11.30;99.90;;;;;;5086959;28;20189;-80
2021/09/30 07:09:42;;;;;;;0.20;0.20;;;11.60;99.90;;;;;;5096101;28;20182;-80
2021/09/30 07:12:08;;;;;;;0.07;0.07;;;11.90;99.90;;;;;;5085386;28;20322;-80
2021/09/30 07:14:33;;;;;;;0.77;0.30;;;12.10;99.90;;;;;;5093594;28;20182;-80
2021/09/30 07:16:59;;;;;;;0.73;0.73;;;12.10;99.90;;;;;;5095141;28;20190;-81
2021/09/30 07:19:25;;;;;;;0.00;0.00;;;12.20;99.90;;;;;;5090982;28;20200;-80
2021/09/30 07:21:51;;;;;;;0.10;0.10;;;12.40;99.90;;;;;;5100904;28;20185;-80
2021/09/30 07:24:17;;;;;;;0.17;0.17;;;12.50;99.90;;;;;;5091799;28;20255;-80
2021/09/30 07:26:43;;;;;;;0.97;0.40;;;12.50;99.90;;;;;;5088868;28;20198;-80
2021/09/30 07:29:08;;;;;;;0.17;0.17;;;12.50;99.90;;;;;;5090787;28;20196;-81
2021/09/30 07:31:34;;;;;;;0.23;0.23;;;12.70;99.90;;;;;;5098133;28;20723;-81
2021/09/30 07:34:00;;;;;;;0.10;0.10;;;12.50;99.90;;;;;;5098330;28;20576;-80
2021/09/30 07:36:25;;;;;;;0.10;0.10;;;12.70;99.90;;;;;;5090085;28;20503;-81
2021/09/30 07:38:51;;;;;;;0.20;0.20;;;13.00;99.90;;;;;;5090583;28;20210;-81
2021/09/30 07:41:17;;;;;;;0.20;0.20;;;12.90;99.90;;;;;;5092543;28;20268;-81
2021/09/30 07:43:43;;;;;;;0.30;0.30;;;12.80;99.90;;;;;;5094150;28;20199;-80
2021/09/30 07:46:08;;;;;;;0.10;0.10;;;12.70;99.90;;;;;;5088104;28;20215;-80
2021/09/30 07:48:34;;;;;;;0.10;0.10;;;12.70;99.90;;;;;;5095367;28;20184;-80
2021/09/30 07:51:00;;;;;;;0.10;0.10;;;12.70;99.90;;;;;;5089040;28;20192;-80
2021/09/30 07:53:25;;;;;;;2.53;0.27;;;12.70;99.90;;;;;;5091658;28;20199;-80
2021/09/30 07:55:52;;;;;;;0.10;0.10;;;12.50;99.90;;;;;;5097111;28;20282;-81
2021/09/30 07:58:18;;;;;;;4.67;0.63;;;12.60;99.90;;;;;;5091758;28;20197;-80
2021/09/30 08:00:44;;;;;;;0.10;0.10;;;12.80;99.90;;;;;;5084590;28;20174;-80
2021/09/30 08:03:10;;;;;;;0.10;0.10;;;12.80;99.90;;;;;;5091379;28;20610;-81
2021/09/30 08:05:36;;;;;;;0.10;0.10;;;12.80;99.90;;;;;;5103379;28;20201;-80
2021/09/30 08:08:09;;;;;;;0.20;0.20;;;12.80;99.90;;;;;;5092144;28;20550;-80
2021/09/30 08:10:35;;;;;;;0.40;0.40;;;12.90;99.90;;;;;;5089932;28;20168;-80
2021/09/30 08:13:01;;;;;;;0.00;0.00;;;13.10;99.90;;;;;;5091116;28;20195;-81
2021/09/30 08:15:27;;;;;;;0.57;0.10;;;13.20;99.90;;;;;;5089477;28;20185;-81
2021/09/30 08:17:53;;;;;;;0.10;0.10;;;13.30;99.90;;;;;;5091558;28;20183;-80
2021/09/30 08:20:22;;;;;;;0.10;0.10;;;13.40;99.90;;;;;;5092627;28;20214;-80
2021/09/30 08:22:48;;;;;;;0.10;0.10;;;13.50;99.90;;;;;;5082278;28;20266;-80
2021/09/30 08:25:14;;;;;;;0.10;0.10;;;13.60;99.90;;;;;;5093729;28;20180;-80
2021/09/30 08:27:40;;;;;;;0.10;0.10;;;13.80;99.90;;;;;;5093753;28;20300;-81
2021/09/30 08:30:07;;;;;;;0.10;0.10;;;13.80;99.90;;;;;;5087913;28;20191;-81
2021/09/30 08:32:32;;;;;;;0.00;0.00;;;13.90;99.90;;;;;;5097462;28;20211;-80
2021/09/30 08:34:58;;;;;;;0.10;0.10;;;14.10;99.90;;;;;;5091490;28;20893;-80
2021/09/30 08:37:23;;;;;;;0.20;0.20;;;14.20;99.90;;;;;;5084483;28;20262;-80
2021/09/30 08:39:49;;;;;;;0.20;0.20;;;14.00;99.90;;;;;;5105537;28;20200;-80
2021/09/30 08:42:15;;;;;;;0.10;0.10;;;14.10;99.90;;;;;;5095741;28;20191;-81
2021/09/30 08:44:40;;;;;;;0.10;0.10;;;14.30;99.90;;;;;;5092931;28;20235;-80
2021/09/30 08:47:06;;;;;;;0.10;0.10;;;14.60;99.90;;;;;;5092785;28;20184;-80
2021/09/30 08:49:34;;;;;;;0.20;0.20;;;14.60;99.90;;;;;;5096042;28;20184;-80
2021/09/30 08:52:00;;;;;;;0.10;0.10;;;14.80;99.90;;;;;;5090746;28;20212;-80
2021/09/30 08:54:26;;;;;;;0.03;0.03;;;15.10;99.90;;;;;;5094243;28;20204;-81
2021/09/30 08:56:51;;;;;;;0.10;0.10;;;15.00;99.90;;;;;;5082304;28;20280;-81
2021/09/30 08:59:19;;;;;;;0.30;0.30;;;15.00;99.90;;;;;;5089192;28;20231;-80
2021/09/30 09:02:01;;;;;;;0.20;0.20;;;14.90;99.90;;;;;;5095808;28;20272;-81
2021/09/30 09:04:27;;;;;;;0.10;0.10;;;14.60;99.90;;;;;;5082071;28;20619;-81
2021/09/30 09:06:52;;;;;;;1.27;0.57;;;14.90;99.90;;;;;;5095064;28;20189;-80
2021/09/30 09:09:22;;;;;;;0.13;0.13;;;14.80;99.90;;;;;;5094773;28;20548;-80
2021/09/30 09:11:49;;;;;;;0.10;0.10;;;15.10;99.90;;;;;;5090915;28;20305;-81
2021/09/30 09:14:42;;;;;;;0.20;0.20;;;15.50;99.90;;;;;;5090366;28;20203;-81
2021/09/30 09:17:13;;;;;;;0.30;0.30;;;15.20;99.90;;;;;;5105571;28;20192;-80
2021/09/30 09:19:46;;;;;;;0.00;0.00;;;15.50;99.90;;;;;;5088993;28;20294;-81
2021/09/30 09:22:12;;;;;;;0.37;0.37;;;15.80;99.90;;;;;;5080686;28;20171;-80
2021/09/30 09:24:57;;;;;;;0.10;0.10;;;16.00;99.90;;;;;;5094250;28;20172;-81
2021/09/30 09:27:23;;;;;;;0.20;0.20;;;16.20;99.90;;;;;;5092642;28;20216;-81
2021/09/30 09:29:48;;;;;;;0.20;0.20;;;16.20;99.90;;;;;;5090163;28;20653;-81
2021/09/30 09:32:14;;;;;;;0.30;0.30;;;16.10;99.90;;;;;;5097444;28;20189;-80
2021/09/30 09:34:40;;;;;;;0.10;0.10;;;16.30;99.90;;;;;;5095507;28;20184;-81
2021/09/30 09:37:40;;;;;;;0.20;0.20;;;16.50;99.90;;;;;;5084836;28;20186;-79
2021/09/30 09:40:14;;;;;;;0.10;0.10;;;16.40;99.90;;;;;;5084233;28;20212;-80
2021/09/30 09:42:40;;;;;;;0.20;0.20;;;16.30;99.90;;;;;;5097399;28;20671;-81
2021/09/30 09:45:11;;;;;;;0.10;0.10;;;16.30;99.90;;;;;;5089590;28;20187;-80
2021/09/30 09:47:38;;;;;;;0.20;0.20;;;16.20;99.90;;;;;;5086651;28;20177;-80
2021/09/30 09:50:25;;;;;;;0.20;0.20;;;16.40;99.90;;;;;;5097338;28;20182;-81
2021/09/30 09:52:58;;;;;;;0.10;0.10;;;16.60;99.90;;;;;;5087422;28;20215;-81
2021/09/30 09:55:31;;;;;;;0.13;0.13;;;16.80;99.90;;;;;;5109516;28;20653;-80
2021/09/30 09:58:02;;;;;;;0.20;0.20;;;16.90;99.90;;;;;;5087657;28;20673;-80
2021/09/30 10:00:29;;;;;;;0.10;0.10;;;16.80;99.90;;;;;;5087546;28;20277;-81
2021/09/30 10:02:54;;;;;;;0.10;0.10;;;16.90;99.90;;;;;;5089555;28;20194;-81
2021/09/30 10:05:21;;;;;;;0.10;0.10;;;17.00;99.90;;;;;;5087212;28;20781;-80
2021/09/30 10:07:47;;;;;;;0.17;0.17;;;17.00;99.90;;;;;;5089359;28;20259;-81
2021/09/30 10:10:15;;;;;;;0.20;0.20;;;17.20;99.90;;;;;;5098025;28;20232;-80
2021/09/30 10:12:42;;;;;;;0.43;0.43;;;17.40;99.90;;;;;;5087534;28;20200;-80
2021/09/30 10:15:08;;;;;;;0.57;0.57;;;17.20;99.90;;;;;;5086885;28;20191;-81
2021/09/30 10:17:34;;;;;;;0.83;0.50;;;17.30;99.90;;;;;;5079276;28;20198;-81
2021/09/30 10:20:00;;;;;;;0.10;0.10;;;17.50;99.90;;;;;;5091715;28;20271;-81
2021/09/30 10:22:26;;;;;;;0.10;0.10;;;17.60;99.90;;;;;;5084580;28;20703;-80
2021/09/30 10:24:55;;;;;;;0.27;0.27;;;17.80;99.90;;;;;;5085542;28;20188;-81
2021/09/30 10:27:21;;;;;;;0.40;0.40;;;17.60;99.90;;;;;;5091920;28;20201;-80
2021/09/30 10:29:48;;;;;;;0.10;0.10;;;17.80;99.90;;;;;;5086235;28;20184;-81
2021/09/30 10:32:17;;;;;;;0.37;0.37;;;17.50;99.90;;;;;;5088591;28;20184;-81
2021/09/30 10:34:47;;;;;;;0.03;0.03;;;17.30;99.90;;;;;;5086448;28;20189;-81
2021/09/30 10:37:26;;;;;;;0.10;0.10;;;17.10;99.90;;;;;;5088720;28;20172;-81
2021/09/30 10:40:19;;;;;;;0.10;0.10;;;17.10;99.90;;;;;;5099655;28;20211;-80
2021/09/30 10:42:57;;;;;;;0.30;0.30;;;16.90;99.90;;;;;;5093150;28;20195;-81
2021/09/30 10:45:43;;;;;;;0.13;0.13;;;16.60;99.90;;;;;;5097417;28;20176;-81
2021/09/30 10:48:24;;;;;;;0.00;0.00;;;16.40;99.90;;;;;;5089744;28;20270;-80
2021/09/30 10:50:58;;;;;;;0.20;0.20;;;16.30;99.90;;;;;;5094442;28;20178;-81
2021/09/30 10:53:45;;;;;;;0.10;0.10;;;16.30;99.90;;;;;;5092775;28;20199;-81
2021/09/30 10:56:49;;;;;;;0.43;0.40;;;16.20;99.90;;;;;;5098413;28;20246;-81
2021/09/30 10:59:19;;;;;;;0.10;0.10;;;16.10;99.90;;;;;;5096385;28;20213;-80
2021/09/30 11:01:47;;;;;;;0.20;0.20;;;16.00;99.90;;;;;;5099704;28;20185;-81
2021/09/30 11:04:17;;;;;;;0.30;0.30;;;15.90;99.90;;;;;;5090464;28;20229;-80
2021/09/30 11:07:02;;;;;;;0.40;0.30;;;16.10;99.90;;;;;;5092153;28;20178;-80
2021/09/30 11:09:28;;;;;;;0.97;0.30;;;16.10;99.90;;;;;;5093489;28;20219;-81
2021/09/30 11:12:08;;;;;;;0.10;0.10;;;16.20;99.90;;;;;;5088447;28;20179;-81
2021/09/30 11:14:33;;;;;;;0.20;0.20;;;16.60;99.90;;;;;;5095147;28;20211;-81
2021/09/30 11:16:59;;;;;;;2.37;0.37;;;16.90;99.90;;;;;;5109471;28;20186;-81
2021/09/30 11:19:43;;;;;;;0.10;0.10;;;16.90;99.90;;;;;;5090463;28;20281;-80
2021/09/30 11:22:11;;;;;;;0.33;0.23;;;17.40;99.90;;;;;;5096967;28;20177;-80
2021/09/30 11:24:57;;;;;;;0.40;0.33;;;17.60;99.90;;;;;;5089856;28;20194;-81
2021/09/30 11:27:29;;;;;;;0.13;0.13;;;17.60;99.90;;;;;;5103245;28;20258;-80
2021/09/30 11:30:16;;;;;;;0.10;0.10;;;17.40;99.90;;;;;;5089545;28;20243;-81
2021/09/30 11:32:43;;;;;;;0.10;0.10;;;17.20;99.90;;;;;;5088068;28;20255;-81
2021/09/30 11:35:09;;;;;;;0.30;0.30;;;17.00;99.90;;;;;;5090914;28;20262;-81
2021/09/30 11:37:40;;;;;;;0.10;0.10;;;17.30;99.90;;;;;;5081668;28;20702;-81
2021/09/30 11:40:13;;;;;;;0.10;0.10;;;17.30;99.90;;;;;;5084273;28;20186;-81
2021/09/30 11:42:48;;;;;;;0.10;0.10;;;17.00;99.90;;;;;;5088784;28;20210;-80
2021/09/30 11:45:21;;;;;;;3.30;0.60;;;16.90;99.90;;;;;;5089250;28;20182;-80
2021/09/30 11:47:48;;;;;;;0.10;0.10;;;16.80;99.90;;;;;;5088973;28;20709;-81
2021/09/30 11:50:23;;;;;;;0.20;0.20;;;16.90;99.90;;;;;;5088619;28;20701;-81
2021/09/30 11:53:03;;;;;;;0.10;0.10;;;16.70;99.90;;;;;;5090011;28;20238;-81
2021/09/30 11:55:31;;;;;;;0.10;0.10;;;16.40;99.90;;;;;;5090088;28;20177;-81
2021/09/30 11:58:01;;;;;;;0.53;0.17;;;16.50;99.90;;;;;;5089508;28;20237;-81
2021/09/30 12:00:27;;;;;;;0.10;0.10;;;16.40;99.90;;;;;;5086641;28;20201;-80
2021/09/30 12:02:54;;;;;;;0.20;0.20;;;16.50;99.90;;;;;;5088122;28;20198;-81
2021/09/30 12:05:20;;;;;;;0.20;0.20;;;16.80;99.90;;;;;;5090407;28;20181;-81
2021/09/30 12:07:46;;;;;;;0.10;0.10;;;17.00;99.90;;;;;;5087496;28;20174;-81
2021/09/30 12:10:14;;;;;;;0.47;0.30;;;16.90;99.90;;;;;;5091974;28;20674;-81
2021/09/30 12:12:43;;;;;;;0.20;0.20;;;16.80;99.90;;;;;;5086027;28;20198;-81
2021/09/30 12:15:09;;;;;;;0.10;0.10;;;17.20;99.90;;;;;;5098399;28;20193;-81
2021/09/30 12:17:37;;;;;;;0.20;0.20;;;17.40;99.90;;;;;;5097549;28;20187;-81
2021/09/30 12:20:07;;;;;;;0.10;0.10;;;17.70;99.90;;;;;;5093860;28;20202;-81
2021/09/30 12:22:34;;;;;;;0.20;0.20;;;18.00;99.90;;;;;;5098212;28;20203;-81
2021/09/30 12:25:07;;;;;;;0.10;0.10;;;18.10;99.90;;;;;;5086492;28;20199;-80
2021/09/30 12:27:40;;;;;;;0.10;0.10;;;18.00;99.90;;;;;;5097174;28;20191;-81
2021/09/30 12:30:10;;;;;;;0.20;0.20;;;18.30;99.90;;;;;;5090865;28;20173;-81
2021/09/30 12:32:37;;;;;;;1.90;0.27;;;18.90;99.90;;;;;;5092487;28;20235;-80
2021/09/30 12:35:09;;;;;;;0.10;0.10;;;18.80;99.90;;;;;;5093383;28;20247;-81
2021/09/30 12:37:37;;;;;;;0.10;0.10;;;18.70;99.90;;;;;;5092471;28;20180;-81
2021/09/30 12:40:05;;;;;;;0.10;0.10;;;18.40;99.90;;;;;;5101180;28;20989;-81
2021/09/30 12:42:32;;;;;;;1.10;0.20;;;18.50;99.90;;;;;;5092143;28;20200;-81
2021/09/30 12:44:58;;;;;;;0.10;0.10;;;18.60;99.90;;;;;;5090336;28;20174;-80
2021/09/30 12:47:42;;;;;;;0.10;0.10;;;18.50;99.90;;;;;;5091366;28;20169;-80
2021/09/30 12:50:16;;;;;;;0.50;0.50;;;18.20;99.90;;;;;;5089712;28;20171;-81
2021/09/30 12:52:43;;;;;;;0.10;0.10;;;18.00;99.90;;;;;;5080463;28;20251;-81
2021/09/30 12:55:21;;;;;;;0.20;0.20;;;17.90;99.90;;;;;;5095400;28;20176;-80
2021/09/30 12:57:47;;;;;;;0.10;0.10;;;18.10;99.90;;;;;;5088837;28;20180;-81
2021/09/30 13:00:18;;;;;;;0.10;0.10;;;18.10;99.90;;;;;;5087162;28;20196;-81
2021/09/30 13:02:48;;;;;;;0.10;0.10;;;17.90;99.90;;;;;;5086417;28;20283;-81
2021/09/30 13:05:14;;;;;;;0.50;0.50;;;17.90;99.90;;;;;;5088425;28;20172;-81
2021/09/30 13:07:57;;;;;;;0.10;0.10;;;17.60;99.90;;;;;;5088265;28;20173;-81
2021/09/30 13:10:34;;;;;;;0.10;0.10;;;17.70;99.90;;;;;;5092331;28;20171;-80
2021/09/30 13:13:08;;;;;;;0.10;0.10;;;17.70;99.90;;;;;;5075439;28;20277;-81
2021/09/30 13:15:43;;;;;;;0.10;0.10;;;17.90;99.90;;;;;;5089965;28;20179;-81
2021/09/30 13:18:14;;;;;;;0.10;0.10;;;17.80;99.90;;;;;;5095146;28;20274;-81
2021/09/30 13:20:43;;;;;;;0.10;0.10;;;18.00;99.90;;;;;;5086196;28;20263;-81
2021/09/30 13:23:10;;;;;;;0.30;0.30;;;17.90;99.90;;;;;;5090997;28;20686;-81
2021/09/30 13:25:36;;;;;;;0.20;0.20;;;17.80;99.90;;;;;;5083096;28;20176;-82
2021/09/30 13:28:02;;;;;;;0.10;0.10;;;17.70;99.90;;;;;;5091825;28;20182;-81
2021/09/30 13:30:32;;;;;;;0.20;0.20;;;17.60;99.90;;;;;;5083766;28;20180;-80
2021/09/30 13:33:00;;;;;;;0.10;0.10;;;17.50;99.90;;;;;;5082851;28;20212;-81
2021/09/30 13:35:31;;;;;;;0.10;0.10;;;17.40;99.90;;;;;;5090515;28;20490;-81
2021/09/30 13:37:57;;;;;;;0.43;0.30;;;17.40;99.90;;;;;;5088241;28;20172;-81
2021/09/30 13:40:24;;;;;;;0.10;0.10;;;17.40;99.90;;;;;;5094345;28;20204;-81
2021/09/30 13:42:50;;;;;;;0.23;0.23;;;17.40;99.90;;;;;;5087202;28;20257;-81
2021/09/30 13:45:18;;;;;;;0.17;0.17;;;17.20;99.90;;;;;;5087420;28;20187;-81
2021/09/30 13:47:43;;;;;;;0.17;0.17;;;17.10;99.90;;;;;;5085839;28;20180;-81
2021/09/30 13:50:14;;;;;;;0.10;0.10;;;17.00;99.90;;;;;;5086826;28;20252;-80
2021/09/30 13:52:40;;;;;;;0.40;0.20;;;17.10;99.90;;;;;;5087364;28;20264;-80
2021/09/30 13:55:07;;;;;;;0.20;0.20;;;17.10;99.90;;;;;;5088249;28;20644;-81
2021/09/30 13:57:34;;;;;;;0.33;0.20;;;17.00;99.90;;;;;;5088908;28;20703;-81
2021/09/30 14:00:01;;;;;;;0.20;0.20;;;17.10;99.90;;;;;;5088287;28;20575;-81
2021/09/30 14:02:27;;;;;;;0.10;0.10;;;17.20;99.90;;;;;;5088137;28;20176;-81
2021/09/30 14:04:53;;;;;;;0.83;0.83;;;17.20;99.90;;;;;;5085945;28;20247;-81
2021/09/30 14:07:18;;;;;;;0.20;0.20;;;17.30;99.90;;;;;;5099897;28;20189;-81
2021/09/30 14:09:45;;;;;;;0.27;0.27;;;17.30;99.90;;;;;;5083622;28;20182;-80
2021/09/30 14:12:10;;;;;;;0.67;0.50;;;17.20;99.90;;;;;;5084498;28;20184;-81
2021/09/30 14:14:36;;;;;;;0.10;0.10;;;17.20;99.90;;;;;;5093428;28;20222;-81
2021/09/30 14:17:03;;;;;;;0.10;0.10;;;17.20;99.90;;;;;;5091403;28;20180;-81
2021/09/30 14:19:29;;;;;;;0.13;0.07;;;17.30;99.90;;;;;;5093106;28;20336;-81
2021/09/30 14:21:56;;;;;;;0.27;0.27;;;17.30;99.90;;;;;;5090793;28;20249;-81
2021/09/30 14:24:22;;;;;;;0.93;0.50;;;17.20;99.90;;;;;;5094119;28;20203;-80
2021/09/30 14:26:48;;;;;;;0.20;0.20;;;17.20;99.90;;;;;;5096997;28;20189;-80
2021/09/30 14:29:14;;;;;;;0.37;0.37;;;17.10;99.90;;;;;;5096089;28;20189;-81
2021/09/30 14:31:40;;;;;;;0.10;0.10;;;17.10;99.90;;;;;;5100298;28;20194;-81
2021/09/30 14:34:06;;;;;;;0.30;0.30;;;17.10;99.90;;;;;;5098071;28;20203;-80
2021/09/30 14:36:32;;;;;;;0.10;0.10;;;17.00;99.90;;;;;;5095310;28;20195;-81
2021/09/30 14:38:57;;;;;;;0.20;0.20;;;17.00;99.90;;;;;;5093497;28;20195;-81
2021/09/30 14:41:24;;;;;;;0.40;0.30;;;17.00;99.90;;;;;;5095493;28;20184;-81
2021/09/30 14:43:50;;;;;;;0.47;0.47;;;17.00;99.90;;;;;;5092853;28;20223;-81
2021/09/30 14:46:17;;;;;;;0.77;0.77;;;17.00;99.90;;;;;;5097111;28;20191;-80
2021/09/30 14:48:43;;;;;;;0.10;0.10;;;17.00;99.90;;;;;;5090546;28;20657;-80
2021/09/30 14:51:10;;;;;;;0.10;0.10;;;16.90;99.90;;;;;;5096645;28;20184;-81
2021/09/30 14:53:36;;;;;;;0.10;0.10;;;16.80;99.90;;;;;;5094381;28;20207;-81
2021/09/30 14:56:04;;;;;;;0.10;0.10;;;16.70;99.90;;;;;;5095402;28;20185;-80
2021/09/30 14:58:30;;;;;;;0.67;0.10;;;16.60;99.90;;;;;;5092555;28;20190;-81
2021/09/30 15:00:55;;;;;;;0.20;0.20;;;16.50;99.90;;;;;;5091828;28;20652;-81
2021/09/30 15:03:21;;;;;;;0.47;0.30;;;16.50;99.90;;;;;;5093929;28;20226;-81
2021/09/30 15:05:47;;;;;;;0.10;0.10;;;16.40;99.90;;;;;;5092838;28;20249;-81
2021/09/30 15:08:12;;;;;;;0.20;0.20;;;16.40;99.90;;;;;;5093184;28;20183;-81
2021/09/30 15:10:39;;;;;;;0.10;0.10;;;16.40;99.90;;;;;;5092568;28;20182;-80
2021/09/30 15:13:05;;;;;;;0.10;0.10;;;16.40;99.90;;;;;;5089648;28;20303;-80
2021/09/30 15:15:31;;;;;;;0.23;0.23;;;16.40;99.90;;;;;;5092257;28;20251;-80
2021/09/30 15:23:27;;;;;;;0.53;0.20;;;16.30;99.90;;;;;;5099183;28;20289;-80
2021/09/30 15:25:53;;;;;;;0.10;0.10;;;16.30;99.90;;;;;;5091411;28;20184;-81
2021/09/30 15:28:18;;;;;;;0.10;0.10;;;16.30;99.90;;;;;;5098166;28;20203;-81
2021/09/30 15:30:45;;;;;;;0.10;0.10;;;16.20;99.90;;;;;;5097136;28;20187;-80
2021/09/30 15:33:12;;;;;;;0.40;0.30;;;16.20;99.90;;;;;;5087488;28;20566;-80
2021/09/30 15:35:40;;;;;;;0.10;0.10;;;16.20;99.90;;;;;;5097297;28;20220;-81
2021/09/30 15:38:06;;;;;;;0.10;0.10;;;16.30;99.90;;;;;;5100153;28;20220;-81
2021/09/30 15:40:31;;;;;;;0.20;0.20;;;16.20;99.90;;;;;;5106171;28;20290;-81
2021/09/30 15:42:57;;;;;;;0.10;0.10;;;16.20;99.90;;;;;;5103127;28;20200;-81
2021/09/30 15:45:23;;;;;;;0.10;0.10;;;16.20;99.90;;;;;;5101123;28;20239;-81
2021/09/30 15:47:48;;;;;;;0.33;0.30;;;16.10;99.90;;;;;;5090684;28;20180;-80
2021/09/30 15:50:14;;;;;;;0.10;0.10;;;16.10;99.90;;;;;;5094344;28;20178;-81
2021/09/30 15:52:39;;;;;;;0.20;0.20;;;16.10;99.90;;;;;;5099144;28;20200;-81
2021/09/30 15:55:05;;;;;;;0.10;0.10;;;16.10;99.90;;;;;;5106719;28;20164;-81
2021/09/30 15:57:35;;;;;;;0.03;0.03;;;16.00;99.90;;;;;;5104520;28;20203;-81
2021/09/30 16:00:02;;;;;;;1.10;0.30;;;16.00;99.90;;;;;;5111592;28;20221;-81